createdAt,value
2019-01-04T00:02:15.375Z,103159.09
2019-01-04T00:04:43.744Z,103161.64
2019-01-04T00:07:12.111Z,103163.84
2019-01-04T00:09:40.549Z,103167.52
2019-01-04T00:12:08.927Z,103167.28
2019-01-04T00:14:38.181Z,103173.27
2019-01-04T00:17:06.566Z,103172.06
2019-01-04T00:19:34.946Z,103165.49
2019-01-04T00:22:03.688Z,103176.66
2019-01-04T00:24:45.426Z,103171.98
2019-01-04T00:27:09.252Z,103174.16
2019-01-04T00:29:37.639Z,103169.44
2019-01-04T00:32:06.013Z,103172.53
2019-01-04T00:34:34.388Z,103173.69
2019-01-04T00:37:02.757Z,103178.58
2019-01-04T00:39:31.152Z,103174.50
2019-01-04T00:41:59.532Z,103171.75
2019-01-04T00:44:27.910Z,103165.59
2019-01-04T00:46:56.308Z,103162.35
2019-01-04T00:49:24.680Z,103168.86
2019-01-04T00:51:53.105Z,103165.56
2019-01-04T00:54:21.476Z,103165.25
2019-01-04T00:57:10.616Z,103159.31
2019-01-04T01:00:13.956Z,103158.52
2019-01-04T01:03:00.472Z,103157.54
2019-01-04T01:05:41.090Z,103158.09
2019-01-04T01:08:18.356Z,103154.14
2019-01-04T01:10:52.734Z,103160.02
2019-01-04T01:13:54.181Z,103160.70
2019-01-04T01:16:50.719Z,103162.63
2019-01-04T01:19:46.279Z,103152.36
2019-01-04T01:22:26.546Z,103148.04
2019-01-04T01:25:14.522Z,103146.93
2019-01-04T01:28:02.255Z,103141.89
2019-01-04T01:30:48.216Z,103147.69
2019-01-04T01:33:25.524Z,103165.56
2019-01-04T01:36:13.422Z,103173.45
2019-01-04T01:39:16.741Z,103180.91
2019-01-04T01:41:56.956Z,103175.87
2019-01-04T01:44:37.230Z,103173.36
2019-01-04T01:47:08.650Z,103179.95
2019-01-04T01:49:54.979Z,103183.08
2019-01-04T01:52:31.546Z,103184.77
2019-01-04T01:54:59.949Z,103179.30
2019-01-04T01:57:28.332Z,103177.22
2019-01-04T01:59:56.718Z,103180.08
2019-01-04T02:02:25.093Z,103176.69
2019-01-04T02:04:53.491Z,103177.25
2019-01-04T02:07:21.864Z,103180.58
2019-01-04T02:09:50.247Z,103186.25
2019-01-04T02:12:18.625Z,103186.96
2019-01-04T02:14:47.291Z,103194.33
2019-01-04T02:17:15.712Z,103191.66
2019-01-04T02:19:44.082Z,103184.39
2019-01-04T02:22:12.461Z,103190.69
2019-01-04T02:24:41.419Z,103188.80
2019-01-04T02:27:09.805Z,103187.75
2019-01-04T02:29:38.185Z,103194.95
2019-01-04T02:32:06.583Z,103196.98
2019-01-04T02:34:34.950Z,103205.25
2019-01-04T02:37:03.342Z,103188.72
2019-01-04T02:39:31.717Z,103185.54
2019-01-04T02:42:00.095Z,103187.33
2019-01-04T02:44:28.475Z,103185.66
2019-01-04T02:46:56.858Z,103182.70
2019-01-04T02:49:25.230Z,103173.95
2019-01-04T02:51:53.614Z,103177.59
2019-01-04T02:54:21.986Z,103176.95
2019-01-04T02:56:50.429Z,103181.12
2019-01-04T02:59:24.740Z,103186.28
2019-01-04T03:01:53.195Z,103187.75
2019-01-04T03:04:21.565Z,103193.04
2019-01-04T03:06:49.948Z,103192.55
2019-01-04T03:09:18.345Z,103186.86
2019-01-04T03:11:46.974Z,103182.55
2019-01-04T03:14:15.350Z,103178.55
2019-01-04T03:16:43.730Z,103174.52
2019-01-04T03:19:12.108Z,103175.02
2019-01-04T03:21:40.554Z,103178.73
2019-01-04T03:24:08.868Z,103168.98
2019-01-04T03:26:37.250Z,103161.45
2019-01-04T03:29:05.620Z,103154.94
2019-01-04T03:31:34.001Z,103167.16
2019-01-04T03:34:02.383Z,103167.02
2019-01-04T03:36:30.766Z,103164.10
2019-01-04T03:38:59.136Z,103164.84
2019-01-04T03:41:27.512Z,103159.70
2019-01-04T03:43:55.898Z,103169.96
2019-01-04T03:46:25.264Z,103173.39
2019-01-04T03:48:53.653Z,103173.77
2019-01-04T03:51:22.034Z,103164.03
2019-01-04T03:53:50.410Z,103175.84
2019-01-04T03:56:18.792Z,103171.29
2019-01-04T03:58:47.180Z,103173.66
2019-01-04T04:01:15.554Z,103174.52
2019-01-04T04:03:43.936Z,103164.58
2019-01-04T04:06:12.322Z,103160.40
2019-01-04T04:08:41.086Z,103166.56
2019-01-04T04:11:09.459Z,103170.06
2019-01-04T04:13:37.848Z,103167.23
2019-01-04T04:16:06.214Z,103173.73
2019-01-04T04:18:34.602Z,103164.81
2019-01-04T04:21:02.981Z,103155.00
2019-01-04T04:23:31.361Z,103170.66
2019-01-04T04:25:59.744Z,103166.56
2019-01-04T04:28:28.117Z,103169.55
2019-01-04T04:30:56.509Z,103172.12
2019-01-04T04:33:24.882Z,103170.70
2019-01-04T04:35:53.272Z,103158.83
2019-01-04T04:38:21.648Z,103158.42
2019-01-04T04:40:50.306Z,103150.66
2019-01-04T04:43:18.674Z,103155.72
2019-01-04T04:45:47.058Z,103161.11
2019-01-04T04:48:15.439Z,103160.03
2019-01-04T04:50:43.817Z,103163.75
2019-01-04T04:53:12.190Z,103164.42
2019-01-04T04:55:40.830Z,103165.09
2019-01-04T04:58:09.202Z,103169.45
2019-01-04T05:00:37.586Z,103158.61
2019-01-04T05:03:05.955Z,103163.81
2019-01-04T05:05:34.357Z,103167.48
2019-01-04T05:08:02.715Z,103162.28
2019-01-04T05:10:31.114Z,103164.67
2019-01-04T05:12:59.487Z,103162.28
2019-01-04T05:15:27.873Z,103160.40
2019-01-04T05:17:56.258Z,103155.75
2019-01-04T05:20:24.650Z,103155.14
2019-01-04T05:22:53.030Z,103157.58
2019-01-04T05:25:21.413Z,103158.90
2019-01-04T05:27:51.772Z,103156.72
2019-01-04T05:30:20.156Z,103156.75
2019-01-04T05:32:48.549Z,103150.66
2019-01-04T05:35:22.842Z,103153.23
2019-01-04T05:37:51.229Z,103148.03
2019-01-04T05:40:21.552Z,103148.03
2019-01-04T05:42:50.265Z,103146.42
2019-01-04T05:45:18.642Z,103144.77
2019-01-04T05:47:47.032Z,103152.07
2019-01-04T05:50:15.412Z,103156.95
2019-01-04T05:52:43.797Z,103144.19
2019-01-04T05:55:12.172Z,103148.70
2019-01-04T05:57:40.578Z,103150.22
2019-01-04T06:00:10.567Z,103148.31
2019-01-04T06:02:38.943Z,103149.49
2019-01-04T06:05:07.351Z,103149.92
2019-01-04T06:07:36.694Z,103148.68
2019-01-04T06:10:06.715Z,103145.34
2019-01-04T06:12:35.094Z,103148.51
2019-01-04T06:15:03.787Z,103152.61
2019-01-04T06:17:32.169Z,103157.63
2019-01-04T06:20:04.365Z,103159.55
2019-01-04T06:22:32.745Z,103161.45
2019-01-04T06:25:01.123Z,103153.09
2019-01-04T06:27:29.514Z,103158.03
2019-01-04T06:29:57.890Z,103150.03
2019-01-04T06:32:26.271Z,103154.75
2019-01-04T06:34:54.647Z,103149.41
2019-01-04T06:37:23.049Z,103143.77
2019-01-04T06:39:51.418Z,103139.91
2019-01-04T06:42:19.800Z,103144.69
2019-01-04T06:44:48.433Z,103153.48
2019-01-04T06:47:17.788Z,103150.86
2019-01-04T06:49:46.166Z,103152.19
2019-01-04T06:52:14.551Z,103143.38
2019-01-04T06:55:17.637Z,103144.89
2019-01-04T06:57:48.049Z,103147.78
2019-01-04T07:00:16.200Z,103148.03
2019-01-04T07:02:44.592Z,103155.20
2019-01-04T07:05:12.977Z,103151.94
2019-01-04T07:07:41.400Z,103144.77
2019-01-04T07:10:10.546Z,103135.73
2019-01-04T07:12:39.000Z,103144.78
2019-01-04T07:15:07.655Z,103138.31
2019-01-04T07:17:36.036Z,103138.81
2019-01-04T07:20:05.369Z,103131.08
2019-01-04T07:22:33.751Z,103143.38
2019-01-04T07:25:02.150Z,103143.05
2019-01-04T07:27:30.542Z,103152.17
2019-01-04T07:29:58.922Z,103156.03
2019-01-04T07:32:27.310Z,103165.84
2019-01-04T07:34:55.701Z,103159.61
2019-01-04T07:37:24.079Z,103159.23
2019-01-04T07:39:52.457Z,103166.17
2019-01-04T07:42:20.842Z,103165.73
2019-01-04T07:44:49.231Z,103162.47
2019-01-04T07:47:17.601Z,103158.35
2019-01-04T07:49:45.990Z,103155.06
2019-01-04T07:52:14.400Z,103150.20
2019-01-04T07:54:42.786Z,103150.86
2019-01-04T07:57:11.165Z,103152.17
2019-01-04T07:59:39.554Z,103161.53
2019-01-04T08:02:33.600Z,103160.63
2019-01-04T08:05:02.208Z,103150.41
2019-01-04T08:07:30.671Z,103145.81
2019-01-04T08:09:59.064Z,103140.61
2019-01-04T08:12:27.447Z,103151.75
2019-01-04T08:14:55.819Z,103153.80
2019-01-04T08:17:24.208Z,103161.05
2019-01-04T08:19:55.600Z,103161.87
2019-01-04T08:22:23.978Z,103171.62
2019-01-04T08:24:52.597Z,103177.73
2019-01-04T08:27:20.989Z,103174.09
2019-01-04T08:29:49.358Z,103167.24
2019-01-04T08:32:17.734Z,103150.56
2019-01-04T08:34:46.128Z,103147.19
2019-01-04T08:37:14.507Z,103145.79
2019-01-04T08:39:42.919Z,103151.36
2019-01-04T08:42:11.301Z,103160.69
2019-01-04T08:44:39.681Z,103163.70
2019-01-04T08:47:08.126Z,103167.48
2019-01-04T08:49:36.514Z,103170.09
2019-01-04T08:52:04.897Z,103168.55
2019-01-04T08:54:33.277Z,103175.11
2019-01-04T08:57:01.657Z,103179.46
2019-01-04T08:59:30.308Z,103186.94
2019-01-04T09:01:58.690Z,103181.21
2019-01-04T09:04:27.067Z,103182.98
2019-01-04T09:06:55.441Z,103170.80
2019-01-04T09:09:23.829Z,103171.91
2019-01-04T09:11:52.209Z,103159.38
2019-01-04T09:14:23.628Z,103161.63
2019-01-04T09:16:52.010Z,103154.51
2019-01-04T09:19:20.466Z,103160.42
2019-01-04T09:21:48.860Z,103156.05
2019-01-04T09:24:17.244Z,103148.97
2019-01-04T09:26:45.621Z,103144.56
2019-01-04T09:29:14.009Z,103138.95
2019-01-04T09:31:42.401Z,103109.59
2019-01-04T09:34:10.791Z,103107.53
2019-01-04T09:36:50.102Z,103115.68
2019-01-04T09:39:18.504Z,103097.88
2019-01-04T09:41:47.020Z,103092.44
2019-01-04T09:44:15.413Z,103088.38
2019-01-04T09:46:49.555Z,103091.30
2019-01-04T09:49:17.947Z,103080.33
2019-01-04T09:51:46.321Z,103087.22
2019-01-04T09:54:14.710Z,103101.52
2019-01-04T09:56:43.084Z,103096.77
2019-01-04T09:59:12.358Z,103102.48
2019-01-04T10:01:40.785Z,103100.69
2019-01-04T10:04:09.171Z,103099.38
2019-01-04T10:06:38.463Z,103099.27
2019-01-04T10:09:07.449Z,103089.23
2019-01-04T10:11:35.838Z,103092.14
2019-01-04T10:14:04.209Z,103084.70
2019-01-04T10:16:32.600Z,103083.33
2019-01-04T10:19:01.000Z,103075.05
2019-01-04T10:21:29.393Z,103070.84
2019-01-04T10:23:57.770Z,103067.82
2019-01-04T10:26:26.168Z,103064.16
2019-01-04T10:28:54.558Z,103053.64
2019-01-04T10:31:22.951Z,103055.34
2019-01-04T10:33:51.477Z,103051.56
2019-01-04T10:36:19.858Z,103052.09
2019-01-04T10:38:48.244Z,103046.67
2019-01-04T10:41:16.623Z,103040.20
2019-01-04T10:43:45.016Z,103037.91
2019-01-04T10:46:27.266Z,103038.59
2019-01-04T10:48:55.665Z,103033.87
2019-01-04T10:51:24.059Z,103028.91
2019-01-04T10:53:52.467Z,103027.66
2019-01-04T10:56:20.845Z,103030.17
2019-01-04T10:58:49.245Z,103021.22
2019-01-04T11:01:17.624Z,103023.23
2019-01-04T11:03:46.009Z,103009.84
2019-01-04T11:06:14.393Z,103009.36
2019-01-04T11:08:42.874Z,102999.75
2019-01-04T11:11:11.257Z,102998.81
2019-01-04T11:13:39.950Z,103001.22
2019-01-04T11:16:08.371Z,103000.54
2019-01-04T11:18:37.109Z,103000.59
2019-01-04T11:21:06.338Z,103001.55
2019-01-04T11:23:58.322Z,102995.22
2019-01-04T11:26:35.521Z,102996.01
2019-01-04T11:29:41.051Z,102992.47
2019-01-04T11:32:12.518Z,102977.88
2019-01-04T11:34:49.542Z,102977.38
2019-01-04T11:37:26.974Z,102975.58
2019-01-04T11:40:13.590Z,102974.96
2019-01-04T11:42:48.026Z,102964.88
2019-01-04T11:45:34.429Z,102961.14
2019-01-04T11:48:14.600Z,102965.05
2019-01-04T11:51:04.042Z,102955.84
2019-01-04T11:53:32.436Z,102963.65
2019-01-04T11:56:00.813Z,102963.13
2019-01-04T11:58:29.201Z,102965.44
2019-01-04T12:00:57.649Z,102951.95
2019-01-04T12:03:26.034Z,102955.25
2019-01-04T12:05:54.439Z,102943.38
2019-01-04T12:08:22.821Z,102944.27
2019-01-04T12:10:58.252Z,102945.80
2019-01-04T12:13:26.641Z,102937.73
2019-01-04T12:15:55.019Z,102946.47
2019-01-04T12:18:23.400Z,102935.48
2019-01-04T12:20:51.775Z,102928.95
2019-01-04T12:23:20.178Z,102935.83
2019-01-04T12:25:48.667Z,102932.73
2019-01-04T12:28:36.637Z,102922.95
2019-01-04T12:31:24.353Z,102915.67
2019-01-04T12:33:52.739Z,102916.49
2019-01-04T12:36:21.123Z,102908.33
2019-01-04T12:38:49.500Z,102905.69
2019-01-04T12:41:17.889Z,102897.69
2019-01-04T12:43:47.948Z,102894.33
2019-01-04T12:46:16.611Z,102886.93
2019-01-04T12:48:44.983Z,102892.91
2019-01-04T12:51:13.373Z,102888.45
2019-01-04T12:54:01.079Z,102888.77
2019-01-04T12:56:29.457Z,102899.88
2019-01-04T12:58:57.834Z,102898.36
2019-01-04T13:01:26.218Z,102905.06
2019-01-04T13:03:54.597Z,102897.50
2019-01-04T13:06:22.993Z,102892.26
2019-01-04T13:08:51.390Z,102902.39
2019-01-04T13:11:19.757Z,102899.31
2019-01-04T13:13:48.150Z,102888.91
2019-01-04T13:16:35.859Z,102891.02
2019-01-04T13:19:04.311Z,102881.78
2019-01-04T13:21:32.695Z,102874.61
2019-01-04T13:24:01.083Z,102875.30
2019-01-04T13:26:29.460Z,102873.98
2019-01-04T13:28:57.847Z,102863.31
2019-01-04T13:31:26.227Z,102861.89
2019-01-04T13:33:54.605Z,102868.27
2019-01-04T13:36:22.983Z,102854.40
2019-01-04T13:38:51.371Z,102845.70
2019-01-04T13:41:19.746Z,102851.72
2019-01-04T13:43:48.128Z,102853.63
2019-01-04T13:46:16.508Z,102858.08
2019-01-04T13:48:44.890Z,102861.48
2019-01-04T13:51:13.287Z,102853.10
2019-01-04T13:53:41.673Z,102850.87
2019-01-04T13:56:10.075Z,102847.85
2019-01-04T13:58:38.455Z,102845.80
2019-01-04T14:01:06.846Z,102841.44
2019-01-04T14:03:54.566Z,102838.94
2019-01-04T14:06:22.946Z,102846.08
2019-01-04T14:08:51.331Z,102832.37
2019-01-04T14:11:19.710Z,102841.83
2019-01-04T14:13:48.099Z,102826.39
2019-01-04T14:16:16.511Z,102828.31
2019-01-04T14:18:44.880Z,102827.58
2019-01-04T14:21:13.267Z,102826.22
2019-01-04T14:23:41.702Z,102829.66
2019-01-04T14:26:10.074Z,102831.04
2019-01-04T14:28:38.479Z,102828.36
2019-01-04T14:33:55.961Z,102837.89
2019-01-04T14:36:24.334Z,102839.11
2019-01-04T14:38:52.824Z,102840.37
2019-01-04T14:41:23.401Z,102841.81
2019-01-04T14:43:51.355Z,102837.09
2019-01-04T14:46:22.310Z,102830.36
2019-01-04T14:48:50.698Z,102820.32
2019-01-04T14:51:19.394Z,102816.86
2019-01-04T14:53:47.823Z,102825.55
2019-01-04T14:56:16.199Z,102832.80
2019-01-04T14:58:44.590Z,102817.84
2019-01-04T15:01:12.972Z,102814.55
2019-01-04T15:03:41.359Z,102818.84
2019-01-04T15:06:09.744Z,102830.98
2019-01-04T15:08:38.124Z,102817.41
2019-01-04T15:11:06.524Z,102810.14
2019-01-04T15:13:34.903Z,102806.88
2019-01-04T15:16:03.289Z,102806.72
2019-01-04T15:18:31.659Z,102798.97
2019-01-04T15:21:00.058Z,102798.72
2019-01-04T15:23:28.440Z,102800.73
2019-01-04T15:25:57.073Z,102796.82
2019-01-04T15:28:25.453Z,102805.77
2019-01-04T15:30:53.839Z,102802.02
2019-01-04T15:33:22.225Z,102808.29
2019-01-04T15:35:50.617Z,102808.45
2019-01-04T15:38:19.244Z,102809.96
2019-01-04T15:40:47.640Z,102831.62
2019-01-04T15:43:16.019Z,102821.89
2019-01-04T15:45:44.397Z,102817.40
2019-01-04T15:48:12.801Z,102823.34
2019-01-04T15:50:41.195Z,102819.36
2019-01-04T15:53:09.568Z,102808.40
2019-01-04T15:55:38.012Z,102802.27
2019-01-04T15:58:25.987Z,102803.65
2019-01-04T16:00:54.352Z,102786.35
2019-01-04T16:03:42.084Z,102785.36
2019-01-04T16:06:10.466Z,102781.05
2019-01-04T16:08:38.856Z,102790.20
2019-01-04T16:11:07.237Z,102777.51
2019-01-04T16:13:35.623Z,102793.24
2019-01-04T16:16:04.079Z,102773.11
2019-01-04T16:18:32.539Z,102767.51
2019-01-04T16:21:00.924Z,102775.16
2019-01-04T16:23:29.316Z,102789.88
2019-01-04T16:25:57.691Z,102792.73
2019-01-04T16:28:26.162Z,102796.94
2019-01-04T16:30:54.544Z,102805.42
2019-01-04T16:33:22.928Z,102801.79
2019-01-04T16:35:51.304Z,102795.98
2019-01-04T16:38:39.029Z,102795.03
2019-01-04T16:41:07.427Z,102789.25
2019-01-04T16:43:35.805Z,102797.44
2019-01-04T16:48:53.354Z,102805.48
2019-01-04T16:54:10.843Z,102803.47
2019-01-04T16:56:39.229Z,102794.08
2019-01-04T16:59:07.613Z,102787.64
2019-01-04T17:01:36.065Z,102783.69
2019-01-04T17:04:04.442Z,102777.58
2019-01-04T17:06:52.161Z,102776.13
2019-01-04T17:09:21.029Z,102773.64
2019-01-04T17:11:49.428Z,102772.16
2019-01-04T17:14:17.803Z,102773.98
2019-01-04T17:16:46.190Z,102773.39
2019-01-04T17:19:14.567Z,102777.02
2019-01-04T17:21:42.962Z,102766.00
2019-01-04T17:24:11.344Z,102761.48
2019-01-04T17:26:39.744Z,102770.64
2019-01-04T17:29:08.137Z,102773.19
2019-01-04T17:31:36.526Z,102764.59
2019-01-04T17:34:04.899Z,102771.36
2019-01-04T17:36:33.298Z,102778.63
2019-01-04T17:39:21.016Z,102765.99
2019-01-04T17:41:49.404Z,102777.12
2019-01-04T17:44:37.116Z,102776.40
2019-01-04T17:47:25.096Z,102776.96
2019-01-04T17:49:53.513Z,102762.47
2019-01-04T17:52:34.080Z,102766.88
2019-01-04T17:55:02.464Z,102751.86
2019-01-04T17:57:30.874Z,102743.52
2019-01-04T17:59:59.243Z,102746.75
2019-01-04T18:02:27.634Z,102751.95
2019-01-04T18:04:56.031Z,102754.08
2019-01-04T18:07:24.422Z,102751.84
2019-01-04T18:10:12.142Z,102757.67
2019-01-04T18:13:00.260Z,102761.41
2019-01-04T18:15:28.656Z,102763.94
2019-01-04T18:18:16.467Z,102771.70
2019-01-04T18:20:44.860Z,102764.76
2019-01-04T18:23:13.233Z,102763.76
2019-01-04T18:25:41.805Z,102768.91
2019-01-04T18:28:10.229Z,102776.52
2019-01-04T18:30:57.938Z,102781.78
2019-01-04T18:33:26.341Z,102775.13
2019-01-04T18:35:54.720Z,102775.57
2019-01-04T18:38:23.102Z,102770.94
2019-01-04T18:40:51.483Z,102773.05
2019-01-04T18:43:20.660Z,102772.65
2019-01-04T18:46:25.745Z,102770.28
2019-01-04T18:48:54.127Z,102783.67
2019-01-04T18:51:22.518Z,102776.18
2019-01-04T18:53:51.320Z,102777.19
2019-01-04T18:56:21.361Z,102777.63
2019-01-04T18:58:49.885Z,102770.83
2019-01-04T19:01:18.256Z,102773.09
2019-01-04T19:03:46.644Z,102777.11
2019-01-04T19:06:15.012Z,102777.91
2019-01-04T19:08:44.919Z,102769.95
2019-01-04T19:11:15.261Z,102777.61
2019-01-04T19:13:43.639Z,102776.22
2019-01-04T19:16:12.041Z,102772.81
2019-01-04T19:18:41.423Z,102781.08
2019-01-04T19:21:11.766Z,102779.03
2019-01-04T19:23:40.142Z,102775.34
2019-01-04T19:26:08.526Z,102771.23
2019-01-04T19:28:36.919Z,102756.75
2019-01-04T19:31:05.304Z,102747.34
2019-01-04T19:33:33.678Z,102756.44
2019-01-04T19:36:02.076Z,102758.95
2019-01-04T19:38:30.451Z,102756.94
2019-01-04T19:40:58.832Z,102756.61
2019-01-04T19:43:28.176Z,102747.73
2019-01-04T19:45:56.552Z,102749.03
2019-01-04T19:48:24.944Z,102744.98
2019-01-04T19:50:53.322Z,102749.17
2019-01-04T19:53:21.708Z,102753.97
2019-01-04T19:55:50.083Z,102762.64
2019-01-04T19:58:18.468Z,102771.64
2019-01-04T20:00:46.853Z,102764.31
2019-01-04T20:03:15.235Z,102759.91
2019-01-04T20:05:54.177Z,102758.33
2019-01-04T20:08:59.004Z,102757.38
2019-01-04T20:11:54.032Z,102762.53
2019-01-04T20:15:12.458Z,102761.57
2019-01-04T20:17:51.801Z,102766.68
2019-01-04T20:20:30.831Z,102757.50
2019-01-04T20:23:12.931Z,102760.86
2019-01-04T20:25:45.928Z,102755.14
2019-01-04T20:28:27.513Z,102758.37
2019-01-04T20:31:14.008Z,102751.27
2019-01-04T20:33:47.057Z,102756.63
2019-01-04T20:36:23.002Z,102767.17
2019-01-04T20:38:59.282Z,102760.14
2019-01-04T20:41:29.313Z,102760.86
2019-01-04T20:44:10.303Z,102754.97
2019-01-04T20:46:40.334Z,102751.27
2019-01-04T20:49:14.070Z,102752.89
2019-01-04T20:52:00.254Z,102761.69
2019-01-04T20:54:30.313Z,102760.73
2019-01-04T20:57:07.707Z,102753.88
2019-01-04T20:59:37.735Z,102754.77
2019-01-04T21:02:10.174Z,102754.75
2019-01-04T21:04:49.182Z,102749.95
2019-01-04T21:07:19.210Z,102754.77
2019-01-04T21:10:05.117Z,102752.63
2019-01-04T21:12:44.150Z,102746.75
2019-01-04T21:15:14.205Z,102743.22
2019-01-04T21:17:44.230Z,102746.02
2019-01-04T21:20:14.264Z,102738.73
2019-01-04T21:22:56.246Z,102733.66
2019-01-04T21:25:41.326Z,102730.48
2019-01-04T21:28:26.279Z,102730.38
2019-01-04T21:31:12.772Z,102730.42
2019-01-04T21:33:59.060Z,102722.23
2019-01-04T21:36:29.073Z,102724.34
2019-01-04T21:39:08.371Z,102707.78
2019-01-04T21:41:44.377Z,102716.45
2019-01-04T21:44:32.553Z,102707.91
2019-01-04T21:47:18.681Z,102709.53
2019-01-04T21:49:51.422Z,102713.22
2019-01-04T21:52:33.356Z,102709.58
2019-01-04T21:55:06.075Z,102710.20
2019-01-04T21:57:38.871Z,102722.78
2019-01-04T22:00:16.626Z,102714.88
2019-01-04T22:03:03.014Z,102715.38
2019-01-04T22:05:33.085Z,102709.73
2019-01-04T22:08:11.867Z,102704.75
2019-01-04T22:10:58.149Z,102709.34
2019-01-04T22:13:33.656Z,102696.05
2019-01-04T22:16:06.496Z,102700.10
2019-01-04T22:18:36.870Z,102691.73
2019-01-04T22:21:15.688Z,102695.62
2019-01-04T22:24:01.069Z,102698.13
2019-01-04T22:26:47.326Z,102694.76
2019-01-04T22:29:34.977Z,102690.87
2019-01-04T22:32:07.712Z,102682.61
2019-01-04T22:34:49.341Z,102683.57
2019-01-04T22:37:34.341Z,102683.02
2019-01-04T22:40:16.198Z,102667.45
2019-01-04T22:43:01.440Z,102664.98
2019-01-04T22:45:34.251Z,102664.42
2019-01-04T22:48:07.484Z,102660.98
2019-01-04T22:50:40.212Z,102652.75
2019-01-04T22:53:29.233Z,102660.55
2019-01-04T22:56:05.010Z,102655.58
2019-01-04T22:58:37.759Z,102655.57
2019-01-04T23:01:08.811Z,102653.01
2019-01-04T23:03:41.892Z,102651.68
2019-01-04T23:06:28.051Z,102644.80
2019-01-04T23:09:09.056Z,102649.53
2019-01-04T23:11:55.239Z,102649.33
2019-01-04T23:14:32.245Z,102657.73
2019-01-04T23:17:14.022Z,102640.31
2019-01-04T23:20:00.199Z,102644.65
2019-01-04T23:22:58.042Z,102639.25
2019-01-04T23:25:28.025Z,102637.41
2019-01-04T23:27:58.043Z,102636.98
2019-01-04T23:30:32.689Z,102636.45
2019-01-04T23:33:17.416Z,102635.41
2019-01-04T23:36:05.692Z,102617.93
2019-01-04T23:38:51.900Z,102624.36
2019-01-04T23:41:21.934Z,102615.35
2019-01-04T23:43:52.010Z,102610.87
2019-01-04T23:46:28.261Z,102613.92
2019-01-04T23:48:58.434Z,102604.83
2019-01-04T23:51:46.595Z,102613.19
2019-01-04T23:54:33.772Z,102610.84
2019-01-04T23:57:06.487Z,102610.13
2019-01-04T23:59:42.079Z,102605.14
